createdAt,value
2018-01-11T00:02:12.917Z,6.70
2018-01-11T00:04:40.448Z,6.70
2018-01-11T00:07:08.759Z,6.70
2018-01-11T00:09:36.325Z,6.70
2018-01-11T00:12:03.868Z,6.70
2018-01-11T00:14:32.174Z,6.70
2018-01-11T00:17:00.489Z,6.70
2018-01-11T00:19:28.018Z,6.70
2018-01-11T00:21:56.344Z,6.70
2018-01-11T00:24:23.876Z,6.70
2018-01-11T00:26:51.420Z,6.70
2018-01-11T00:29:19.732Z,6.80
2018-01-11T00:31:47.275Z,6.80
2018-01-11T00:34:14.813Z,6.80
2018-01-11T00:36:43.131Z,6.80
2018-01-11T00:39:10.671Z,6.80
2018-01-11T00:41:38.992Z,6.80
2018-01-11T00:44:06.512Z,6.80
2018-01-11T00:46:35.045Z,6.80
2018-01-11T00:49:02.582Z,6.80
2018-01-11T00:51:30.974Z,6.80
2018-01-11T00:53:58.507Z,6.80
2018-01-11T00:56:26.838Z,6.70
2018-01-11T00:58:54.386Z,6.80
2018-01-11T01:01:22.703Z,6.80
2018-01-11T01:03:50.240Z,6.80
2018-01-11T01:06:17.792Z,6.80
2018-01-11T01:08:46.202Z,6.80
2018-01-11T01:11:13.764Z,6.80
2018-01-11T01:13:41.334Z,6.80
2018-01-11T01:16:08.881Z,6.80
2018-01-11T01:18:36.420Z,6.80
2018-01-11T01:21:03.968Z,6.80
2018-01-11T01:23:31.512Z,6.80
2018-01-11T01:25:59.264Z,6.80
2018-01-11T01:28:26.805Z,6.80
2018-01-11T01:30:55.113Z,6.80
2018-01-11T01:33:22.655Z,6.80
2018-01-11T01:35:50.198Z,6.80
2018-01-11T01:38:18.517Z,6.80
2018-01-11T01:40:46.095Z,6.80
2018-01-11T01:43:13.644Z,6.80
2018-01-11T01:45:41.167Z,6.80
2018-01-11T01:48:09.510Z,6.80
2018-01-11T01:50:37.046Z,6.80
2018-01-11T01:53:05.355Z,6.80
2018-01-11T01:55:32.888Z,6.80
2018-01-11T01:58:01.213Z,6.80
2018-01-11T02:00:28.751Z,6.80
2018-01-11T02:02:56.309Z,6.80
2018-01-11T02:05:23.853Z,6.80
2018-01-11T02:07:52.173Z,6.80
2018-01-11T02:10:19.705Z,6.80
2018-01-11T02:12:48.170Z,6.80
2018-01-11T02:15:15.791Z,6.80
2018-01-11T02:17:43.494Z,6.70
2018-01-11T02:20:11.012Z,6.70
2018-01-11T02:22:38.581Z,6.70
2018-01-11T02:25:06.124Z,6.70
2018-01-11T02:27:34.643Z,6.70
2018-01-11T02:30:02.156Z,6.70
2018-01-11T02:32:29.709Z,6.80
2018-01-11T02:34:57.302Z,6.80
2018-01-11T02:37:25.620Z,6.80
2018-01-11T02:39:53.392Z,6.80
2018-01-11T02:42:20.932Z,6.80
2018-01-11T02:44:49.220Z,6.70
2018-01-11T02:47:16.773Z,6.70
2018-01-11T02:49:45.061Z,6.70
2018-01-11T02:52:13.368Z,6.70
2018-01-11T02:54:40.897Z,6.70
2018-01-11T02:57:09.225Z,6.70
2018-01-11T02:59:36.833Z,6.70
2018-01-11T03:02:04.369Z,6.80
2018-01-11T03:04:31.912Z,6.70
2018-01-11T03:06:59.459Z,6.70
2018-01-11T03:09:27.029Z,6.70
2018-01-11T03:11:54.568Z,6.70
2018-01-11T03:14:22.861Z,6.70
2018-01-11T03:16:51.181Z,6.80
2018-01-11T03:19:18.746Z,6.80
2018-01-11T03:21:46.293Z,6.80
2018-01-11T03:24:13.824Z,6.80
2018-01-11T03:26:42.156Z,6.80
2018-01-11T03:29:09.697Z,6.80
2018-01-11T03:31:37.253Z,6.80
2018-01-11T03:34:05.546Z,6.90
2018-01-11T03:36:33.091Z,6.80
2018-01-11T03:39:01.443Z,6.80
2018-01-11T03:41:29.020Z,6.80
2018-01-11T03:43:56.543Z,6.80
2018-01-11T03:46:24.093Z,6.90
2018-01-11T03:48:51.612Z,6.80
2018-01-11T03:51:19.164Z,6.80
2018-01-11T03:53:46.699Z,6.80
2018-01-11T03:56:14.554Z,6.80
2018-01-11T03:58:42.080Z,6.90
2018-01-11T04:01:09.619Z,6.90
2018-01-11T04:03:37.152Z,6.80
2018-01-11T04:06:04.732Z,6.80
2018-01-11T04:08:32.261Z,6.80
2018-01-11T04:11:00.549Z,6.80
2018-01-11T04:13:28.867Z,6.80
2018-01-11T04:15:56.398Z,6.80
2018-01-11T04:18:24.810Z,6.80
2018-01-11T04:20:52.332Z,6.70
2018-01-11T04:23:20.655Z,6.70
2018-01-11T04:25:48.196Z,6.70
2018-01-11T04:28:15.744Z,6.70
2018-01-11T04:30:43.458Z,6.70
2018-01-11T04:33:11.001Z,6.70
2018-01-11T04:35:38.527Z,6.60
2018-01-11T04:38:06.134Z,6.60
2018-01-11T04:40:33.680Z,6.50
2018-01-11T04:43:01.997Z,6.40
2018-01-11T04:45:29.524Z,6.40
2018-01-11T04:47:57.948Z,6.30
2018-01-11T04:50:25.474Z,6.30
2018-01-11T04:52:53.777Z,6.30
2018-01-11T04:55:21.357Z,6.20
2018-01-11T04:57:49.338Z,6.20
2018-01-11T05:00:16.866Z,6.20
2018-01-11T05:02:45.269Z,6.10
2018-01-11T05:05:12.954Z,6.10
2018-01-11T05:07:40.499Z,6.10
2018-01-11T05:10:08.021Z,6.10
2018-01-11T05:12:35.641Z,6.10
2018-01-11T05:15:03.140Z,6.10
2018-01-11T05:17:30.693Z,6.00
2018-01-11T05:19:58.208Z,6.00
2018-01-11T05:22:25.743Z,6.00
2018-01-11T05:24:53.280Z,5.90
2018-01-11T05:27:20.820Z,5.90
2018-01-11T05:29:48.350Z,5.90
2018-01-11T05:32:15.897Z,5.80
2018-01-11T05:34:43.430Z,5.80
2018-01-11T05:37:11.028Z,5.80
2018-01-11T05:39:38.611Z,5.80
2018-01-11T05:42:06.844Z,5.70
2018-01-11T05:44:34.360Z,5.70
2018-01-11T05:47:02.687Z,5.70
2018-01-11T05:49:30.297Z,5.60
2018-01-11T05:51:57.830Z,5.60
2018-01-11T05:54:25.355Z,5.60
2018-01-11T05:56:53.949Z,5.60
2018-01-11T05:59:22.243Z,5.60
2018-01-11T06:01:50.622Z,5.50
2018-01-11T06:04:18.933Z,5.50
2018-01-11T06:06:46.444Z,5.50
2018-01-11T06:09:14.771Z,5.50
2018-01-11T06:11:42.831Z,5.50
2018-01-11T06:14:11.112Z,5.50
2018-01-11T06:16:38.655Z,5.50
2018-01-11T06:19:07.005Z,5.70
2018-01-11T06:21:34.520Z,5.60
2018-01-11T06:24:02.824Z,5.60
2018-01-11T06:26:30.409Z,5.60
2018-01-11T06:28:57.954Z,5.70
2018-01-11T06:31:25.520Z,5.70
2018-01-11T06:33:53.081Z,5.70
2018-01-11T06:36:20.610Z,5.70
2018-01-11T06:38:48.903Z,5.80
2018-01-11T06:41:17.216Z,5.80
2018-01-11T06:43:44.736Z,5.80
2018-01-11T06:46:13.043Z,5.80
2018-01-11T06:48:41.448Z,5.80
2018-01-11T06:51:08.980Z,5.80
2018-01-11T06:53:37.293Z,5.80
2018-01-11T06:56:04.839Z,5.80
2018-01-11T06:58:33.128Z,5.80
2018-01-11T07:01:00.671Z,5.80
2018-01-11T07:03:28.979Z,5.90
2018-01-11T07:05:56.508Z,5.90
2018-01-11T07:08:24.046Z,5.90
2018-01-11T07:10:51.592Z,5.90
2018-01-11T07:13:19.232Z,5.90
2018-01-11T07:15:46.772Z,6.00
2018-01-11T07:18:15.089Z,6.00
2018-01-11T07:20:42.612Z,6.00
2018-01-11T07:23:10.913Z,6.10
2018-01-11T07:25:39.240Z,6.10
2018-01-11T07:28:06.729Z,6.10
2018-01-11T07:30:34.263Z,6.10
2018-01-11T07:33:01.821Z,6.10
2018-01-11T07:35:29.348Z,6.20
2018-01-11T07:37:57.667Z,6.20
2018-01-11T07:40:25.198Z,6.20
2018-01-11T07:42:53.492Z,6.30
2018-01-11T07:45:21.031Z,6.30
2018-01-11T07:47:48.581Z,6.30
2018-01-11T07:50:16.128Z,6.30
2018-01-11T07:52:43.661Z,6.40
2018-01-11T07:55:11.221Z,6.40
2018-01-11T07:57:39.520Z,6.40
2018-01-11T08:00:07.116Z,6.50
2018-01-11T08:02:34.676Z,6.50
2018-01-11T08:05:02.216Z,6.50
2018-01-11T08:07:29.767Z,6.50
2018-01-11T08:09:57.388Z,6.50
2018-01-11T08:12:24.914Z,6.50
2018-01-11T08:14:52.453Z,6.50
2018-01-11T08:17:20.768Z,6.60
2018-01-11T08:19:48.363Z,6.50
2018-01-11T08:22:15.896Z,6.50
2018-01-11T08:24:43.434Z,6.60
2018-01-11T08:27:11.735Z,6.60
2018-01-11T08:29:39.264Z,6.50
2018-01-11T08:32:07.587Z,6.60
2018-01-11T08:34:35.096Z,6.50
2018-01-11T08:37:02.620Z,6.60
2018-01-11T08:39:30.233Z,6.60
2018-01-11T08:41:57.779Z,6.60
2018-01-11T08:44:25.303Z,6.60
2018-01-11T08:46:52.853Z,6.60
2018-01-11T08:49:21.364Z,6.70
2018-01-11T08:51:48.897Z,6.70
2018-01-11T08:54:17.210Z,6.80
2018-01-11T08:56:44.754Z,6.80
2018-01-11T08:59:12.372Z,6.90
2018-01-11T09:01:39.975Z,6.80
2018-01-11T09:04:07.476Z,6.90
2018-01-11T09:06:35.057Z,7.00
2018-01-11T09:09:02.609Z,7.00
2018-01-11T09:11:30.131Z,7.00
2018-01-11T09:13:58.449Z,7.10
2018-01-11T09:16:27.553Z,7.00
2018-01-11T09:18:55.079Z,7.10
2018-01-11T09:21:23.373Z,7.10
2018-01-11T09:23:51.724Z,7.20
2018-01-11T09:26:19.258Z,7.10
2018-01-11T09:28:46.796Z,7.30
2018-01-11T09:31:14.341Z,7.30
2018-01-11T09:33:42.640Z,7.40
2018-01-11T09:36:10.165Z,7.40
2018-01-11T09:38:38.507Z,7.50
2018-01-11T09:41:06.948Z,7.50
2018-01-11T09:43:34.469Z,7.50
2018-01-11T09:46:02.061Z,7.60
2018-01-11T09:48:29.572Z,7.60
2018-01-11T09:50:57.103Z,7.70
2018-01-11T09:53:24.639Z,7.70
2018-01-11T09:55:52.168Z,7.80
2018-01-11T09:58:19.750Z,7.70
2018-01-11T10:00:47.281Z,7.80
2018-01-11T10:03:15.564Z,7.90
2018-01-11T10:05:43.848Z,7.90
2018-01-11T10:08:12.136Z,8.00
2018-01-11T10:10:40.422Z,8.00
2018-01-11T10:13:07.944Z,8.10
2018-01-11T10:15:35.497Z,8.10
2018-01-11T10:18:03.032Z,8.10
2018-01-11T10:20:30.568Z,8.10
2018-01-11T10:22:58.977Z,8.20
2018-01-11T10:25:26.494Z,8.20
2018-01-11T10:27:54.030Z,8.30
2018-01-11T10:30:21.603Z,8.30
2018-01-11T10:32:49.086Z,8.40
2018-01-11T10:35:16.708Z,8.30
2018-01-11T10:37:44.271Z,8.30
2018-01-11T10:40:11.797Z,8.30
2018-01-11T10:42:39.323Z,8.30
2018-01-11T10:45:06.891Z,8.40
2018-01-11T10:47:34.425Z,8.40
2018-01-11T10:50:01.956Z,8.40
2018-01-11T10:52:29.511Z,8.40
2018-01-11T10:54:57.049Z,8.40
2018-01-11T10:57:24.567Z,8.60
2018-01-11T10:59:52.887Z,8.70
2018-01-11T11:02:26.137Z,8.70
2018-01-11T11:04:54.436Z,8.70
2018-01-11T11:07:21.957Z,8.70
2018-01-11T11:09:51.030Z,8.80
2018-01-11T11:12:18.676Z,8.70
2018-01-11T11:14:46.433Z,8.90
2018-01-11T11:17:14.725Z,9.00
2018-01-11T11:19:42.603Z,9.00
2018-01-11T11:22:10.114Z,9.10
2018-01-11T11:24:37.648Z,9.10
2018-01-11T11:27:05.188Z,9.20
2018-01-11T11:29:32.765Z,9.30
2018-01-11T11:32:00.285Z,9.30
2018-01-11T11:34:27.899Z,9.30
2018-01-11T11:36:55.411Z,9.40
2018-01-11T11:39:22.968Z,9.50
2018-01-11T11:41:50.513Z,9.50
2018-01-11T11:44:18.046Z,9.50
2018-01-11T11:46:45.581Z,9.60
2018-01-11T11:49:13.120Z,9.50
2018-01-11T11:51:40.643Z,9.40
2018-01-11T11:54:08.163Z,9.40
2018-01-11T11:56:35.806Z,9.40
2018-01-11T11:59:03.320Z,9.40
2018-01-11T12:01:31.610Z,9.40
2018-01-11T12:03:59.924Z,9.40
2018-01-11T12:06:27.504Z,9.30
2018-01-11T12:08:55.145Z,9.40
2018-01-11T12:11:22.683Z,9.40
2018-01-11T12:13:50.982Z,9.50
2018-01-11T12:16:18.514Z,9.40
2018-01-11T12:18:46.150Z,9.40
2018-01-11T12:21:13.678Z,9.40
2018-01-11T12:23:41.197Z,9.40
2018-01-11T12:26:10.260Z,9.40
2018-01-11T12:28:37.839Z,9.40
2018-01-11T12:31:05.391Z,9.50
2018-01-11T12:33:32.920Z,9.50
2018-01-11T12:36:01.200Z,9.50
2018-01-11T12:38:29.486Z,9.50
2018-01-11T12:40:57.796Z,9.60
2018-01-11T12:43:25.317Z,9.60
2018-01-11T12:45:52.841Z,9.70
2018-01-11T12:48:20.490Z,9.70
2018-01-11T12:50:48.092Z,9.70
2018-01-11T12:53:15.620Z,9.70
2018-01-11T12:55:43.156Z,9.70
2018-01-11T12:58:11.446Z,9.80
2018-01-11T13:00:39.749Z,9.90
2018-01-11T13:03:07.314Z,9.90
2018-01-11T13:05:35.500Z,9.90
2018-01-11T13:08:03.068Z,10.10
2018-01-11T13:10:30.632Z,10.10
2018-01-11T13:12:58.164Z,10.20
2018-01-11T13:15:26.456Z,10.20
2018-01-11T13:17:53.995Z,10.20
2018-01-11T13:20:21.538Z,10.00
2018-01-11T13:22:49.068Z,10.00
2018-01-11T13:25:16.620Z,10.00
2018-01-11T13:27:44.165Z,10.00
2018-01-11T13:30:12.510Z,9.90
2018-01-11T13:32:40.063Z,9.80
2018-01-11T13:35:07.622Z,9.80
2018-01-11T13:37:35.308Z,9.70
2018-01-11T13:40:02.858Z,9.50
2018-01-11T13:42:30.397Z,9.50
2018-01-11T13:44:57.961Z,9.50
2018-01-11T13:47:26.318Z,9.40
2018-01-11T13:49:53.837Z,9.40
2018-01-11T13:52:21.366Z,9.40
2018-01-11T13:54:49.721Z,9.20
2018-01-11T13:57:17.319Z,9.20
2018-01-11T13:59:44.832Z,9.30
2018-01-11T14:02:12.539Z,9.30
2018-01-11T14:04:40.837Z,9.40
2018-01-11T14:07:08.418Z,9.40
2018-01-11T14:09:35.962Z,9.40
2018-01-11T14:12:04.268Z,9.40
2018-01-11T14:14:31.773Z,9.40
2018-01-11T14:16:59.324Z,9.40
2018-01-11T14:19:26.853Z,9.40
2018-01-11T14:21:54.375Z,9.40
2018-01-11T14:24:21.950Z,9.40
2018-01-11T14:26:49.508Z,9.40
2018-01-11T14:29:17.036Z,9.40
2018-01-11T14:31:44.589Z,9.40
2018-01-11T14:34:12.133Z,9.40
2018-01-11T14:36:40.484Z,9.40
2018-01-11T14:39:09.540Z,9.40
2018-01-11T14:41:37.076Z,9.40
2018-01-11T14:44:05.482Z,9.30
2018-01-11T14:46:33.030Z,9.20
2018-01-11T14:49:00.564Z,9.20
2018-01-11T14:51:28.178Z,9.10
2018-01-11T14:53:55.763Z,9.10
2018-01-11T14:56:23.261Z,9.00
2018-01-11T14:58:50.781Z,8.90
2018-01-11T15:01:18.440Z,8.90
2018-01-11T15:03:46.073Z,8.90
2018-01-11T15:06:14.490Z,8.80
2018-01-11T15:08:42.506Z,8.80
2018-01-11T15:11:10.121Z,8.70
2018-01-11T15:13:37.789Z,8.70
2018-01-11T15:16:05.414Z,8.60
2018-01-11T15:18:33.052Z,8.60
2018-01-11T15:21:00.590Z,8.50
2018-01-11T15:23:28.890Z,8.50
2018-01-11T15:25:56.424Z,8.50
2018-01-11T15:28:24.736Z,8.30
2018-01-11T15:30:52.306Z,8.30
2018-01-11T15:33:19.850Z,8.30
2018-01-11T15:35:47.383Z,8.20
2018-01-11T15:38:14.988Z,8.20
2018-01-11T15:40:42.521Z,8.10
2018-01-11T15:43:10.050Z,8.00
2018-01-11T15:45:37.609Z,8.00
2018-01-11T15:48:05.135Z,8.00
2018-01-11T15:50:32.665Z,7.90
2018-01-11T15:53:00.998Z,7.90
2018-01-11T15:55:28.527Z,7.80
2018-01-11T15:57:56.820Z,7.80
2018-01-11T16:00:25.120Z,7.80
2018-01-11T16:02:52.661Z,7.80
2018-01-11T16:05:20.950Z,7.80
2018-01-11T16:07:49.268Z,7.80
2018-01-11T16:10:16.913Z,7.80
2018-01-11T16:12:44.430Z,7.80
2018-01-11T16:15:12.743Z,7.80
2018-01-11T16:17:41.045Z,7.80
2018-01-11T16:20:08.572Z,7.80
2018-01-11T16:22:36.115Z,7.80
2018-01-11T16:25:03.753Z,7.80
2018-01-11T16:27:31.287Z,7.80
2018-01-11T16:29:59.599Z,7.70
2018-01-11T16:32:27.137Z,7.70
2018-01-11T16:34:55.448Z,7.70
2018-01-11T16:37:23.015Z,7.70
2018-01-11T16:39:50.641Z,7.70
2018-01-11T16:42:18.979Z,7.70
2018-01-11T16:44:46.510Z,7.70
2018-01-11T16:47:14.069Z,7.60
2018-01-11T16:49:41.596Z,7.70
2018-01-11T16:52:10.670Z,7.60
2018-01-11T16:54:38.196Z,7.60
2018-01-11T16:57:06.492Z,7.60
2018-01-11T16:59:34.056Z,7.60
2018-01-11T17:02:01.656Z,7.60
2018-01-11T17:04:29.185Z,7.60
2018-01-11T17:06:56.736Z,7.60
2018-01-11T17:09:25.032Z,7.50
2018-01-11T17:11:52.575Z,7.50
2018-01-11T17:14:20.143Z,7.50
2018-01-11T17:16:48.436Z,7.40
2018-01-11T17:19:15.989Z,7.40
2018-01-11T17:21:44.584Z,7.40
2018-01-11T17:24:12.891Z,7.30
2018-01-11T17:26:40.421Z,7.30
2018-01-11T17:29:08.732Z,7.30
2018-01-11T17:31:36.272Z,7.30
2018-01-11T17:34:04.533Z,7.30
2018-01-11T17:36:32.096Z,7.20
2018-01-11T17:38:59.648Z,7.20
2018-01-11T17:41:27.204Z,7.20
2018-01-11T17:43:54.852Z,7.10
2018-01-11T17:46:22.384Z,7.10
2018-01-11T17:48:50.746Z,7.10
2018-01-11T17:51:18.308Z,7.10
2018-01-11T17:53:46.137Z,7.10
2018-01-11T17:56:13.701Z,7.10
2018-01-11T17:58:41.263Z,7.10
2018-01-11T18:01:08.878Z,7.00
2018-01-11T18:03:36.422Z,7.10
2018-01-11T18:06:03.972Z,7.10
2018-01-11T18:08:31.496Z,7.10
2018-01-11T18:10:59.907Z,7.10
2018-01-11T18:13:27.494Z,7.10
2018-01-11T18:15:55.050Z,7.10
2018-01-11T18:18:22.641Z,7.10
2018-01-11T18:20:50.201Z,7.20
2018-01-11T18:23:17.936Z,7.20
2018-01-11T18:25:45.496Z,7.20
2018-01-11T18:28:13.040Z,7.20
2018-01-11T18:30:41.382Z,7.10
2018-01-11T18:33:08.908Z,7.10
2018-01-11T18:35:36.458Z,7.10
2018-01-11T18:38:04.766Z,7.10
2018-01-11T18:40:32.323Z,7.10
2018-01-11T18:42:59.887Z,7.10
2018-01-11T18:45:27.469Z,7.10
2018-01-11T18:47:55.853Z,7.10
2018-01-11T18:50:23.459Z,7.10
2018-01-11T18:52:50.993Z,7.00
2018-01-11T18:55:18.583Z,7.00
2018-01-11T18:57:46.144Z,7.00
2018-01-11T19:00:13.737Z,7.00
2018-01-11T19:02:41.317Z,7.00
2018-01-11T19:05:09.656Z,6.90
2018-01-11T19:07:37.305Z,6.90
2018-01-11T19:10:04.841Z,6.90
2018-01-11T19:12:33.193Z,6.90
2018-01-11T19:15:00.756Z,6.90
2018-01-11T19:17:28.305Z,6.90
2018-01-11T19:19:55.952Z,6.90
2018-01-11T19:22:23.516Z,6.90
2018-01-11T19:24:51.069Z,6.90
2018-01-11T19:27:18.638Z,6.90
2018-01-11T19:29:46.178Z,6.90
2018-01-11T19:32:14.483Z,6.90
2018-01-11T19:34:42.057Z,6.90
2018-01-11T19:37:09.718Z,6.90
2018-01-11T19:39:37.268Z,6.90
2018-01-11T19:42:04.830Z,6.80
2018-01-11T19:44:32.375Z,6.80
2018-01-11T19:47:00.024Z,6.80
2018-01-11T19:49:27.628Z,6.80
2018-01-11T19:51:55.981Z,6.80
2018-01-11T19:54:23.599Z,6.80
2018-01-11T19:56:51.151Z,6.70
2018-01-11T19:59:18.730Z,6.70
2018-01-11T20:01:46.278Z,6.70
2018-01-11T20:04:13.840Z,6.70
2018-01-11T20:06:41.430Z,6.70
2018-01-11T20:09:08.987Z,6.70
2018-01-11T20:11:36.551Z,6.60
2018-01-11T20:14:04.077Z,6.60
2018-01-11T20:16:31.619Z,6.60
2018-01-11T20:18:59.201Z,6.60
2018-01-11T20:21:26.744Z,6.60
2018-01-11T20:23:54.298Z,6.60
2018-01-11T20:26:21.855Z,6.60
2018-01-11T20:28:49.399Z,6.60
2018-01-11T20:31:16.933Z,6.60
2018-01-11T20:33:44.492Z,6.60
2018-01-11T20:36:12.025Z,6.60
2018-01-11T20:38:39.566Z,6.60
2018-01-11T20:41:07.140Z,6.60
2018-01-11T20:43:34.686Z,6.70
2018-01-11T20:46:03.006Z,6.70
2018-01-11T20:48:30.593Z,6.70
2018-01-11T20:50:58.133Z,6.70
2018-01-11T20:53:25.666Z,6.70
2018-01-11T20:55:53.240Z,6.70
2018-01-11T20:58:21.529Z,6.70
2018-01-11T21:00:49.097Z,6.70
2018-01-11T21:03:16.664Z,6.70
2018-01-11T21:05:44.230Z,6.80
2018-01-11T21:08:11.898Z,6.80
2018-01-11T21:10:39.790Z,6.80
2018-01-11T21:13:07.326Z,6.80
2018-01-11T21:15:34.869Z,6.80
2018-01-11T21:18:03.189Z,6.70
2018-01-11T21:20:30.745Z,6.70
2018-01-11T21:22:58.283Z,6.70
2018-01-11T21:25:26.608Z,6.60
2018-01-11T21:27:54.212Z,6.70
2018-01-11T21:30:21.754Z,6.60
2018-01-11T21:32:49.326Z,6.60
2018-01-11T21:35:16.955Z,6.70
2018-01-11T21:37:44.471Z,6.60
2018-01-11T21:40:12.049Z,6.60
2018-01-11T21:42:39.604Z,6.70
2018-01-11T21:45:07.167Z,6.70
2018-01-11T21:47:34.732Z,6.80
2018-01-11T21:50:02.275Z,6.80
2018-01-11T21:52:29.805Z,6.70
2018-01-11T21:54:57.413Z,6.80
2018-01-11T21:57:24.936Z,6.70
2018-01-11T21:59:52.467Z,6.70
2018-01-11T22:02:20.792Z,6.70
2018-01-11T22:04:48.361Z,6.70
2018-01-11T22:07:15.892Z,6.70
2018-01-11T22:09:44.245Z,6.80
2018-01-11T22:12:11.785Z,6.70
2018-01-11T22:14:39.339Z,6.80
2018-01-11T22:17:06.899Z,6.80
2018-01-11T22:19:34.441Z,6.80
2018-01-11T22:22:02.816Z,6.80
2018-01-11T22:24:31.159Z,6.80
2018-01-11T22:26:58.701Z,6.80
2018-01-11T22:29:26.306Z,6.80
2018-01-11T22:31:53.851Z,6.80
2018-01-11T22:34:21.498Z,6.80
2018-01-11T22:36:49.298Z,6.70
2018-01-11T22:39:16.936Z,6.70
2018-01-11T22:41:44.472Z,6.70
2018-01-11T22:44:12.022Z,6.70
2018-01-11T22:46:39.577Z,6.60
2018-01-11T22:49:07.132Z,6.60
2018-01-11T22:51:34.671Z,6.60
2018-01-11T22:54:02.233Z,6.60
2018-01-11T22:56:29.772Z,6.60
2018-01-11T22:58:57.298Z,6.60
2018-01-11T23:01:24.857Z,6.60
2018-01-11T23:03:52.386Z,6.60
2018-01-11T23:06:20.052Z,6.60
2018-01-11T23:08:47.605Z,6.60
2018-01-11T23:11:20.776Z,6.60
2018-01-11T23:13:49.092Z,6.50
2018-01-11T23:16:16.657Z,6.50
2018-01-11T23:18:44.189Z,6.50
2018-01-11T23:21:12.516Z,6.50
2018-01-11T23:23:40.051Z,6.50
2018-01-11T23:26:08.343Z,6.40
2018-01-11T23:28:35.902Z,6.40
2018-01-11T23:31:03.445Z,6.40
2018-01-11T23:33:31.736Z,6.40
2018-01-11T23:36:00.057Z,6.30
2018-01-11T23:38:27.612Z,6.30
2018-01-11T23:40:55.110Z,6.40
2018-01-11T23:43:22.670Z,6.30
2018-01-11T23:45:50.233Z,6.30
2018-01-11T23:48:17.762Z,6.30
2018-01-11T23:50:45.340Z,6.40
2018-01-11T23:53:12.871Z,6.40
2018-01-11T23:55:41.174Z,6.40
2018-01-11T23:58:08.730Z,6.30
